Time;durP1;ratioP1;P1;durP2;ratioP2;P2;SDS_P1;SDS_P2;PMS_P1;PMS_P2;Temp;Humidity;BMP_temperature;BMP_pressure;BME280_temperature;BME280_humidity;BME280_pressure;Samples;Min_cycle;Max_cycle;Signal;HPM_P1;HPM_P2
2022/06/14 00:01:44;;;;;;;2.50;2.30;;;22.30;49.80;;;;;;4956247;28;20222;-71
2022/06/14 00:04:11;;;;;;;3.17;2.42;;;22.30;49.80;;;;;;4955855;28;20691;-71
2022/06/14 00:06:39;;;;;;;2.58;2.20;;;22.30;50.60;;;;;;4956120;28;20226;-72
2022/06/14 00:09:06;;;;;;;2.40;2.20;;;22.30;50.00;;;;;;4955895;28;20226;-72
2022/06/14 00:11:36;;;;;;;2.53;2.33;;;22.20;49.90;;;;;;4956237;28;20246;-72
2022/06/14 00:14:04;;;;;;;2.60;2.40;;;22.20;50.00;;;;;;4956114;28;20199;-72
2022/06/14 00:16:32;;;;;;;3.17;2.42;;;22.20;50.20;;;;;;4955373;28;20198;-72
2022/06/14 00:19:01;;;;;;;2.60;2.28;;;22.20;50.20;;;;;;4955891;28;20227;-72
2022/06/14 00:21:28;;;;;;;2.65;2.35;;;22.20;50.20;;;;;;4955718;28;20210;-72
2022/06/14 00:23:56;;;;;;;2.58;2.38;;;22.20;50.20;;;;;;4955993;28;20195;-74
2022/06/14 00:26:23;;;;;;;2.45;2.25;;;22.20;50.20;;;;;;4955593;28;20191;-72
2022/06/14 00:28:52;;;;;;;2.70;2.35;;;22.20;50.40;;;;;;4955430;28;20225;-72
2022/06/14 00:31:20;;;;;;;3.40;2.63;;;22.20;50.40;;;;;;4955530;28;20302;-72
2022/06/14 00:33:47;;;;;;;2.38;2.17;;;22.20;50.30;;;;;;4955398;28;20207;-71
2022/06/14 00:36:21;;;;;;;2.70;2.30;;;22.20;50.40;;;;;;4955445;28;20195;-72
2022/06/14 00:38:48;;;;;;;2.67;2.17;;;22.10;50.40;;;;;;4955370;28;20219;-72
2022/06/14 00:41:33;;;;;;;2.78;2.20;;;22.10;50.40;;;;;;4955368;28;20210;-72
2022/06/14 00:44:01;;;;;;;2.42;2.22;;;22.10;50.40;;;;;;4955741;28;20247;-72
2022/06/14 00:46:30;;;;;;;2.42;2.15;;;22.10;50.50;;;;;;4955073;28;20233;-72
2022/06/14 00:49:02;;;;;;;2.58;2.38;;;22.10;50.40;;;;;;4955056;28;20317;-72
2022/06/14 00:51:31;;;;;;;2.35;2.15;;;22.10;50.50;;;;;;4955105;28;20645;-72
2022/06/14 00:54:02;;;;;;;2.95;2.65;;;22.10;50.60;;;;;;4955389;28;20210;-71
2022/06/14 00:56:33;;;;;;;2.30;2.10;;;22.10;50.40;;;;;;4955299;29;20210;-72
2022/06/14 00:59:03;;;;;;;2.30;2.10;;;22.10;50.60;;;;;;4954880;28;20230;-72
2022/06/14 01:01:32;;;;;;;2.67;2.25;;;22.10;51.30;;;;;;4971038;28;20195;-72
2022/06/14 01:04:03;;;;;;;2.58;2.30;;;22.10;50.60;;;;;;4954944;28;20231;-72
2022/06/14 01:06:33;;;;;;;2.33;2.05;;;22.10;50.80;;;;;;4954900;28;20233;-72
2022/06/14 01:09:04;;;;;;;2.83;2.30;;;22.00;50.70;;;;;;4954785;28;20222;-72
2022/06/14 01:11:33;;;;;;;2.63;2.42;;;22.00;51.50;;;;;;4954856;28;20226;-72
2022/06/14 01:14:02;;;;;;;2.58;2.38;;;22.00;50.80;;;;;;4954695;28;20246;-72
2022/06/14 01:16:30;;;;;;;2.15;2.00;;;22.00;51.00;;;;;;4954811;28;20279;-72
2022/06/14 01:18:57;;;;;;;3.55;2.60;;;22.00;51.20;;;;;;4954587;28;20309;-72
2022/06/14 01:21:25;;;;;;;2.97;2.35;;;22.00;51.10;;;;;;4954563;28;20281;-71
2022/06/14 01:23:54;;;;;;;2.60;2.40;;;22.00;51.10;;;;;;4954487;28;20314;-72
2022/06/14 01:26:22;;;;;;;2.92;2.38;;;22.00;51.00;;;;;;4955624;28;20217;-71
2022/06/14 01:28:50;;;;;;;2.53;2.30;;;22.00;51.20;;;;;;4954824;28;20226;-72
2022/06/14 01:31:18;;;;;;;3.35;2.50;;;22.00;51.80;;;;;;4954605;28;20195;-70
2022/06/14 01:33:46;;;;;;;2.60;2.40;;;21.90;51.10;;;;;;4954388;28;20199;-71
2022/06/14 01:36:17;;;;;;;3.67;2.33;;;21.90;51.20;;;;;;4954338;28;20201;-72
2022/06/14 01:38:45;;;;;;;2.60;2.35;;;21.90;51.20;;;;;;4954232;28;20273;-72
2022/06/14 01:41:20;;;;;;;2.72;2.30;;;21.90;51.90;;;;;;4954364;28;20269;-71
2022/06/14 01:43:59;;;;;;;2.75;2.10;;;21.90;51.30;;;;;;4955641;28;20190;-72
2022/06/14 01:46:27;;;;;;;2.65;2.45;;;21.80;51.20;;;;;;4954201;28;20244;-72
2022/06/14 01:51:50;;;;;;;2.50;2.30;;;21.80;51.30;;;;;;4954218;28;20218;-71
2022/06/14 01:51:54;;;;;;;2.78;2.40;;;21.80;51.30;;;;;;4954141;28;20652;-72
2022/06/14 01:54:24;;;;;;;2.72;2.50;;;21.80;51.30;;;;;;4954297;28;20194;-71
2022/06/14 01:56:56;;;;;;;2.55;2.35;;;21.80;51.40;;;;;;4954421;28;20297;-72
2022/06/14 01:59:24;;;;;;;3.28;2.35;;;21.80;51.30;;;;;;4954267;28;20219;-72
2022/06/14 02:01:58;;;;;;;2.65;2.42;;;21.80;51.50;;;;;;4954084;28;20255;-72
2022/06/14 02:04:39;;;;;;;2.30;2.10;;;21.80;52.20;;;;;;4955274;28;20691;-72
2022/06/14 02:07:12;;;;;;;2.70;2.45;;;21.80;51.60;;;;;;4954060;28;20195;-72
2022/06/14 02:09:43;;;;;;;2.63;2.30;;;21.70;51.60;;;;;;4953999;28;20634;-72
2022/06/14 02:12:15;;;;;;;2.42;2.25;;;21.70;51.60;;;;;;4954034;28;20261;-72
2022/06/14 02:14:46;;;;;;;2.20;2.10;;;21.70;51.60;;;;;;4955446;28;20269;-72
2022/06/14 02:17:16;;;;;;;2.50;2.30;;;21.70;51.70;;;;;;4954015;28;20199;-71
2022/06/14 02:19:45;;;;;;;2.58;2.38;;;21.70;51.70;;;;;;4953831;28;20599;-71
2022/06/14 02:22:14;;;;;;;2.75;2.55;;;21.70;51.50;;;;;;4953937;28;20198;-72
2022/06/14 02:24:43;;;;;;;2.55;2.35;;;21.70;51.80;;;;;;4953676;28;20285;-71
2022/06/14 02:27:14;;;;;;;2.58;2.38;;;21.60;51.70;;;;;;4953817;28;20212;-71
2022/06/14 02:29:42;;;;;;;2.60;2.40;;;21.60;52.00;;;;;;4953716;28;20230;-72
2022/06/14 02:32:12;;;;;;;2.72;2.53;;;21.60;51.90;;;;;;4953801;28;20682;-72
2022/06/14 02:34:42;;;;;;;2.65;2.45;;;21.60;51.90;;;;;;4953833;28;20198;-72
2022/06/14 02:37:10;;;;;;;2.42;2.22;;;21.60;52.10;;;;;;4953649;28;20210;-73
2022/06/14 02:39:39;;;;;;;2.50;2.30;;;21.60;52.00;;;;;;4954883;28;20222;-72
2022/06/14 02:42:08;;;;;;;2.72;2.28;;;21.60;52.20;;;;;;4959150;28;20274;-72
2022/06/14 02:44:39;;;;;;;2.78;2.30;;;21.60;52.10;;;;;;4958853;28;20205;-72
2022/06/14 02:47:10;;;;;;;2.67;2.20;;;21.50;52.10;;;;;;4958196;28;20215;-72
2022/06/14 02:49:40;;;;;;;2.45;2.25;;;21.50;52.00;;;;;;4957904;28;20226;-72
2022/06/14 02:54:44;;;;;;;2.38;2.17;;;21.50;52.20;;;;;;4995575;28;20259;-67
2022/06/14 02:57:20;;;;;;;2.83;2.33;;;21.50;52.90;;;;;;4995941;28;20197;-67
2022/06/14 02:59:51;;;;;;;2.53;2.33;;;21.50;52.30;;;;;;4996031;28;20221;-67
2022/06/14 03:02:23;;;;;;;2.65;2.38;;;21.50;52.10;;;;;;4995773;28;20305;-66
2022/06/14 03:04:54;;;;;;;2.60;2.40;;;21.50;52.10;;;;;;4996080;28;20665;-67
2022/06/14 03:07:23;;;;;;;2.50;2.30;;;21.50;52.00;;;;;;4995818;28;20663;-67
2022/06/14 03:09:51;;;;;;;2.55;2.35;;;21.50;52.00;;;;;;4995724;28;20677;-67
2022/06/14 03:12:22;;;;;;;2.42;2.22;;;21.50;52.10;;;;;;4995646;28;20667;-66
2022/06/14 03:14:55;;;;;;;2.75;2.50;;;21.50;52.00;;;;;;4995670;28;20229;-67
2022/06/14 03:17:26;;;;;;;2.88;2.60;;;21.50;52.10;;;;;;4997122;28;20586;-67
2022/06/14 03:19:59;;;;;;;2.70;2.50;;;21.50;52.10;;;;;;4996203;28;20643;-66
2022/06/14 03:22:30;;;;;;;3.30;2.80;;;21.50;52.50;;;;;;4996838;28;20186;-66
2022/06/14 03:24:59;;;;;;;3.42;2.67;;;21.50;52.30;;;;;;4996809;28;20185;-66
2022/06/14 03:27:29;;;;;;;2.55;2.35;;;21.60;52.30;;;;;;4997492;28;20201;-67
2022/06/14 03:30:00;;;;;;;2.60;2.22;;;21.60;52.10;;;;;;4996936;28;20190;-67
2022/06/14 03:32:31;;;;;;;2.97;2.70;;;21.60;52.10;;;;;;4996788;28;20186;-65
2022/06/14 03:35:02;;;;;;;2.55;2.25;;;21.70;52.10;;;;;;4995445;28;20198;-65
2022/06/14 03:37:29;;;;;;;2.75;2.50;;;21.70;51.90;;;;;;4996933;28;20190;-65
2022/06/14 03:39:58;;;;;;;3.05;2.40;;;21.70;51.80;;;;;;4995307;28;20651;-65
2022/06/14 03:42:25;;;;;;;2.70;2.50;;;21.70;51.80;;;;;;4995123;28;20205;-65
2022/06/14 03:44:52;;;;;;;3.15;2.70;;;21.80;51.80;;;;;;4995458;28;20202;-65
2022/06/14 03:47:23;;;;;;;2.70;2.50;;;21.80;51.90;;;;;;4996633;28;20235;-65
2022/06/14 03:49:52;;;;;;;2.78;2.40;;;21.80;51.80;;;;;;4995216;28;20228;-64
2022/06/14 03:52:37;;;;;;;2.83;2.55;;;21.80;51.60;;;;;;4994061;28;20193;-65
2022/06/14 03:55:12;;;;;;;2.75;2.50;;;21.80;51.60;;;;;;4996251;28;20264;-65
2022/06/14 03:57:47;;;;;;;3.00;2.60;;;21.70;51.50;;;;;;4994993;28;20193;-65
2022/06/14 04:00:21;;;;;;;2.78;2.53;;;21.80;51.70;;;;;;4995040;28;20205;-65
2022/06/14 04:03:07;;;;;;;2.75;2.55;;;21.80;51.70;;;;;;4994730;28;20239;-65
2022/06/14 04:05:46;;;;;;;2.72;2.50;;;21.80;51.60;;;;;;4996118;28;20197;-65
2022/06/14 04:08:19;;;;;;;2.63;2.42;;;21.80;51.70;;;;;;4994831;28;20201;-65
2022/06/14 04:10:49;;;;;;;2.60;2.40;;;21.80;51.70;;;;;;4995983;28;20204;-65
2022/06/14 04:13:17;;;;;;;2.63;2.42;;;21.90;51.70;;;;;;4994676;28;20222;-65
2022/06/14 04:15:47;;;;;;;3.22;2.55;;;21.80;51.70;;;;;;4995790;28;20236;-65
2022/06/14 04:21:13;;;;;;;3.35;2.72;;;21.80;51.60;;;;;;4987961;28;20572;-65
2022/06/14 04:23:43;;;;;;;2.60;2.40;;;21.80;51.70;;;;;;4994554;28;20217;-65
2022/06/14 04:26:14;;;;;;;3.58;2.50;;;21.80;51.70;;;;;;4994445;28;20223;-65
2022/06/14 04:28:43;;;;;;;2.60;2.40;;;21.80;51.60;;;;;;4994631;28;20202;-65
2022/06/14 04:31:12;;;;;;;4.25;2.78;;;21.90;51.70;;;;;;4994189;28;20260;-65
2022/06/14 04:33:44;;;;;;;2.75;2.55;;;21.80;51.60;;;;;;4994429;28;20225;-64
2022/06/14 04:36:12;;;;;;;3.33;2.90;;;21.90;51.70;;;;;;4994794;28;20197;-65
2022/06/14 04:38:42;;;;;;;2.50;2.30;;;21.90;51.70;;;;;;4994485;28;20201;-65
2022/06/14 04:41:12;;;;;;;2.63;2.42;;;21.90;51.50;;;;;;4994423;28;20213;-65
2022/06/14 04:43:41;;;;;;;2.75;2.55;;;22.00;51.70;;;;;;4994104;28;20691;-65
2022/06/14 04:46:10;;;;;;;2.50;2.30;;;22.10;51.90;;;;;;4995455;28;20213;-64
2022/06/14 04:48:39;;;;;;;2.67;2.47;;;22.20;51.50;;;;;;4994097;28;20205;-65
2022/06/14 04:51:09;;;;;;;2.90;2.60;;;22.50;51.10;;;;;;4994031;28;20205;-65
2022/06/14 04:53:39;;;;;;;2.67;2.47;;;22.70;50.70;;;;;;4995106;28;20305;-65
2022/06/14 04:56:08;;;;;;;2.70;2.50;;;22.90;50.30;;;;;;4993815;28;20650;-65
2022/06/14 04:58:37;;;;;;;2.20;2.10;;;23.10;49.80;;;;;;4993810;28;20195;-65
2022/06/14 05:01:07;;;;;;;2.72;2.47;;;23.30;49.50;;;;;;4996141;28;20190;-65
2022/06/14 05:03:36;;;;;;;4.95;3.03;;;23.40;48.80;;;;;;4994012;28;20316;-64
2022/06/14 05:06:06;;;;;;;3.60;2.97;;;23.60;48.70;;;;;;4994379;28;20217;-66
2022/06/14 05:08:35;;;;;;;3.65;3.00;;;23.70;48.20;;;;;;4995406;28;20194;-66
2022/06/14 05:11:05;;;;;;;3.85;2.90;;;23.90;47.50;;;;;;4993946;28;20193;-66
2022/06/14 05:13:37;;;;;;;4.65;4.10;;;24.00;47.70;;;;;;4994139;28;20303;-64
2022/06/14 05:16:06;;;;;;;4.53;3.17;;;24.20;46.90;;;;;;4995106;28;20200;-66
2022/06/14 05:18:35;;;;;;;6.07;4.75;;;24.30;46.80;;;;;;4996145;28;20312;-66
2022/06/14 05:21:04;;;;;;;5.65;4.35;;;24.20;45.20;;;;;;4994741;28;20683;-66
2022/06/14 05:23:34;;;;;;;8.00;4.40;;;24.10;45.30;;;;;;4994678;28;20336;-66
2022/06/14 05:26:04;;;;;;;5.10;4.20;;;24.00;45.00;;;;;;4996351;28;20268;-66
2022/06/14 05:28:36;;;;;;;6.85;4.18;;;23.60;45.80;;;;;;5001816;28;20219;-66
2022/06/14 05:31:10;;;;;;;5.63;4.18;;;23.30;46.50;;;;;;5000059;28;20182;-66
2022/06/14 05:33:39;;;;;;;7.15;4.50;;;23.10;47.00;;;;;;4993765;28;20229;-66
2022/06/14 05:36:10;;;;;;;5.25;4.03;;;22.90;47.50;;;;;;4994632;28;20202;-66
2022/06/14 05:38:42;;;;;;;4.90;4.00;;;22.80;48.00;;;;;;4994704;28;20192;-65
2022/06/14 05:41:12;;;;;;;9.60;3.63;;;22.70;48.00;;;;;;4993884;28;20193;-65
2022/06/14 05:43:42;;;;;;;4.68;3.65;;;22.90;48.00;;;;;;4994376;28;20710;-66
2022/06/14 05:46:11;;;;;;;3.53;3.20;;;23.30;47.50;;;;;;4994231;28;20233;-66
2022/06/14 05:48:40;;;;;;;4.65;3.33;;;23.60;46.90;;;;;;4995178;28;20201;-67
2022/06/14 05:51:07;;;;;;;7.10;3.92;;;23.90;46.40;;;;;;5006421;28;20192;-69
2022/06/14 05:53:36;;;;;;;4.32;3.45;;;24.20;46.70;;;;;;5012210;28;20223;-67
2022/06/14 05:56:09;;;;;;;4.53;3.70;;;24.40;45.80;;;;;;5012204;28;20193;-66
2022/06/14 05:58:39;;;;;;;4.47;3.63;;;24.60;45.40;;;;;;5012194;28;20185;-67
2022/06/14 06:01:08;;;;;;;4.13;3.60;;;24.90;45.20;;;;;;5012446;28;20196;-66
2022/06/14 06:03:38;;;;;;;4.93;3.10;;;25.00;44.70;;;;;;5013743;28;20219;-66
2022/06/14 06:06:06;;;;;;;4.72;3.28;;;25.20;44.40;;;;;;5012388;28;20282;-66
2022/06/14 06:08:35;;;;;;;3.90;2.85;;;25.30;44.00;;;;;;5012330;28;20199;-67
2022/06/14 06:11:06;;;;;;;4.00;3.00;;;25.50;43.70;;;;;;5012461;28;20196;-67
2022/06/14 06:13:36;;;;;;;4.10;3.20;;;25.60;43.50;;;;;;5011912;28;20319;-67
2022/06/14 06:16:05;;;;;;;3.78;2.90;;;25.70;43.30;;;;;;5012021;28;20201;-67
2022/06/14 06:18:35;;;;;;;4.22;3.00;;;25.90;43.10;;;;;;5014065;28;20275;-66
2022/06/14 06:21:04;;;;;;;3.90;2.83;;;25.90;42.80;;;;;;5013223;28;20201;-67
2022/06/14 06:23:33;;;;;;;4.45;3.30;;;26.10;42.70;;;;;;5012907;28;20247;-67
2022/06/14 06:26:00;;;;;;;6.50;3.33;;;26.20;42.50;;;;;;4988146;28;20213;-67
2022/06/14 06:28:29;;;;;;;4.10;3.05;;;26.20;42.30;;;;;;4971294;28;20260;-68
2022/06/14 06:31:00;;;;;;;3.78;2.95;;;26.30;42.10;;;;;;4971320;28;20221;-67
2022/06/14 06:33:27;;;;;;;4.60;2.90;;;26.40;41.90;;;;;;4971745;28;20222;-69
2022/06/14 06:36:00;;;;;;;3.53;2.90;;;26.50;41.60;;;;;;4971052;28;20667;-67
2022/06/14 06:38:33;;;;;;;4.60;3.17;;;26.60;41.60;;;;;;4971730;28;20201;-69
2022/06/14 06:43:48;;;;;;;3.17;2.85;;;26.70;41.20;;;;;;4972175;28;20249;-67
2022/06/14 06:46:16;;;;;;;3.25;2.65;;;26.90;41.10;;;;;;4972889;28;20202;-67
2022/06/14 06:48:48;;;;;;;3.13;2.83;;;26.90;40.90;;;;;;4972876;28;20249;-67
2022/06/14 06:51:16;;;;;;;3.35;2.70;;;27.00;40.80;;;;;;4973318;28;20221;-67
2022/06/14 06:53:47;;;;;;;3.63;2.88;;;27.10;40.70;;;;;;4974357;28;20284;-67
2022/06/14 06:56:15;;;;;;;2.80;2.60;;;27.10;40.60;;;;;;4974361;28;20193;-67
2022/06/14 06:58:48;;;;;;;3.88;2.80;;;27.20;40.50;;;;;;4974711;28;20197;-67
2022/06/14 07:01:18;;;;;;;2.97;2.70;;;27.30;40.40;;;;;;4974115;28;20182;-67
2022/06/14 07:03:46;;;;;;;3.15;2.67;;;27.30;40.20;;;;;;4972915;28;20594;-67
2022/06/14 07:06:14;;;;;;;3.10;2.63;;;27.30;40.00;;;;;;4973028;28;20202;-67
2022/06/14 07:08:42;;;;;;;4.72;2.95;;;27.40;40.00;;;;;;4972659;28;20197;-66
2022/06/14 07:11:13;;;;;;;3.78;3.00;;;27.40;40.00;;;;;;4972911;28;20198;-67
2022/06/14 07:13:44;;;;;;;3.42;3.00;;;27.50;39.90;;;;;;4972818;28;20261;-67
2022/06/14 07:16:14;;;;;;;4.00;3.00;;;27.60;39.90;;;;;;4972779;28;20190;-67
2022/06/14 07:18:45;;;;;;;3.08;2.78;;;27.60;39.70;;;;;;4972619;28;20584;-67
2022/06/14 07:21:14;;;;;;;3.22;2.80;;;27.70;39.70;;;;;;4972694;28;20206;-67
2022/06/14 07:23:43;;;;;;;3.30;2.72;;;27.70;39.50;;;;;;4974172;28;20276;-67
2022/06/14 07:26:18;;;;;;;3.65;2.88;;;27.70;39.50;;;;;;4972995;28;20205;-67
2022/06/14 07:28:50;;;;;;;3.50;2.70;;;27.80;39.40;;;;;;4977326;28;20191;-67
2022/06/14 07:31:20;;;;;;;3.13;2.80;;;27.80;39.30;;;;;;4975963;28;20633;-66
2022/06/14 07:33:49;;;;;;;2.92;2.63;;;27.80;39.20;;;;;;4975962;28;20827;-67
2022/06/14 07:36:18;;;;;;;3.20;2.85;;;27.90;39.90;;;;;;4975859;28;20667;-66
2022/06/14 07:38:49;;;;;;;3.17;2.63;;;27.90;39.10;;;;;;4977177;28;20186;-67
2022/06/14 07:41:21;;;;;;;4.07;2.78;;;27.90;39.70;;;;;;4976215;28;20221;-66
2022/06/14 07:43:53;;;;;;;3.22;2.55;;;28.00;39.00;;;;;;4975707;28;20221;-67
2022/06/14 07:46:23;;;;;;;3.25;2.75;;;28.00;39.60;;;;;;4976900;28;20628;-67
2022/06/14 07:48:54;;;;;;;3.42;3.13;;;28.00;38.90;;;;;;4975764;28;20197;-67
2022/06/14 07:51:24;;;;;;;4.35;2.80;;;28.10;38.90;;;;;;4975610;28;20201;-67
2022/06/14 07:53:55;;;;;;;4.10;2.75;;;28.10;38.80;;;;;;4975311;28;20232;-67
2022/06/14 07:56:24;;;;;;;3.28;2.83;;;28.10;38.80;;;;;;4975651;28;20575;-67
2022/06/14 07:58:55;;;;;;;2.97;2.67;;;28.20;38.80;;;;;;4976654;28;20196;-67
2022/06/14 08:01:25;;;;;;;2.90;2.70;;;28.20;38.80;;;;;;4977017;28;20225;-67
2022/06/14 08:03:58;;;;;;;3.03;2.70;;;28.20;38.80;;;;;;4975343;28;20233;-67
2022/06/14 08:06:28;;;;;;;3.40;2.70;;;28.20;38.70;;;;;;4976898;28;20287;-66
2022/06/14 08:08:57;;;;;;;2.90;2.60;;;28.20;38.70;;;;;;4975212;28;20197;-67
2022/06/14 08:11:31;;;;;;;2.70;2.47;;;28.20;38.70;;;;;;4975264;28;20194;-65
2022/06/14 08:14:00;;;;;;;3.08;2.70;;;28.20;38.70;;;;;;4976643;28;20209;-67
2022/06/14 08:16:27;;;;;;;2.80;2.50;;;28.20;38.70;;;;;;4975217;28;20212;-67
2022/06/14 08:18:58;;;;;;;2.80;2.50;;;28.30;38.70;;;;;;4976817;28;20655;-67
2022/06/14 08:21:28;;;;;;;3.13;2.60;;;28.30;38.70;;;;;;4975199;28;20297;-67
2022/06/14 08:23:57;;;;;;;3.20;2.63;;;28.20;38.60;;;;;;4975237;28;20574;-66
2022/06/14 08:26:31;;;;;;;2.72;2.50;;;28.30;38.80;;;;;;4975587;28;20202;-67
2022/06/14 08:29:01;;;;;;;2.72;2.53;;;28.30;38.70;;;;;;4975757;28;20276;-69
2022/06/14 08:31:32;;;;;;;2.85;2.65;;;28.30;38.60;;;;;;4975111;28;20193;-67
2022/06/14 08:34:02;;;;;;;2.80;2.40;;;28.30;38.60;;;;;;4976462;28;20228;-67
2022/06/14 08:36:31;;;;;;;3.33;2.80;;;28.40;38.60;;;;;;4976445;28;20186;-67
2022/06/14 08:39:00;;;;;;;3.28;2.60;;;28.40;38.60;;;;;;4974667;28;20205;-67
2022/06/14 08:41:41;;;;;;;3.15;2.63;;;28.40;38.50;;;;;;4974984;28;20193;-67
2022/06/14 08:44:10;;;;;;;3.17;2.60;;;28.50;38.50;;;;;;4974814;28;20222;-67
2022/06/14 08:46:41;;;;;;;3.03;2.57;;;28.50;38.40;;;;;;4974536;28;20240;-67
2022/06/14 08:49:25;;;;;;;3.50;2.60;;;28.50;38.30;;;;;;4974677;28;20268;-67
2022/06/14 08:52:15;;;;;;;2.85;2.50;;;28.60;38.30;;;;;;4974641;28;20205;-67
2022/06/14 08:54:53;;;;;;;2.90;2.55;;;28.60;38.20;;;;;;4977112;28;20177;-67
2022/06/14 08:57:35;;;;;;;3.03;2.70;;;28.60;38.20;;;;;;4975824;28;20568;-68
2022/06/14 09:00:15;;;;;;;3.25;2.63;;;28.60;38.20;;;;;;4975168;28;20189;-68
2022/06/14 09:03:06;;;;;;;2.60;2.40;;;28.60;38.20;;;;;;4974892;28;20252;-67
2022/06/14 09:05:52;;;;;;;2.80;2.42;;;28.60;38.20;;;;;;4975768;28;20750;-67
2022/06/14 09:08:52;;;;;;;2.60;2.40;;;28.60;38.20;;;;;;4974522;28;20216;-67
2022/06/14 09:12:09;;;;;;;2.97;2.50;;;28.60;38.20;;;;;;4976211;28;20268;-67
2022/06/14 09:15:07;;;;;;;3.30;2.53;;;28.60;38.20;;;;;;4972013;28;20221;-67
2022/06/14 09:18:08;;;;;;;2.70;2.50;;;28.60;38.20;;;;;;4975392;28;20284;-67
2022/06/14 09:20:38;;;;;;;3.10;2.80;;;28.60;38.20;;;;;;4974265;28;20200;-67
2022/06/14 09:23:17;;;;;;;2.60;2.40;;;28.60;38.20;;;;;;4975377;28;20252;-66
2022/06/14 09:26:05;;;;;;;3.40;2.60;;;28.60;38.20;;;;;;4973913;28;20193;-66
2022/06/14 09:28:46;;;;;;;2.80;2.50;;;28.60;38.20;;;;;;4933393;28;20221;-67
2022/06/14 09:31:23;;;;;;;2.65;2.45;;;28.60;38.30;;;;;;4975486;28;20189;-67
2022/06/14 09:34:10;;;;;;;3.58;2.60;;;28.50;38.30;;;;;;4973887;28;20225;-67
2022/06/14 09:36:59;;;;;;;3.30;2.38;;;28.50;38.80;;;;;;4974036;28;20244;-67
2022/06/14 09:39:44;;;;;;;2.67;2.47;;;28.50;38.30;;;;;;4974138;28;20193;-67
2022/06/14 09:42:40;;;;;;;2.60;2.38;;;28.50;38.40;;;;;;4974614;28;20209;-67
2022/06/14 09:45:27;;;;;;;2.55;2.35;;;28.50;38.50;;;;;;4975660;28;20260;-67
2022/06/14 09:48:21;;;;;;;2.40;2.20;;;28.40;38.50;;;;;;4976506;28;20221;-67
2022/06/14 09:51:19;;;;;;;3.50;2.53;;;28.40;38.60;;;;;;4974531;28;20221;-68
2022/06/14 09:54:17;;;;;;;2.83;2.13;;;28.40;38.70;;;;;;4973942;28;20229;-67
2022/06/14 09:57:17;;;;;;;2.70;2.47;;;28.30;38.80;;;;;;4973928;28;20200;-67
2022/06/14 10:00:01;;;;;;;2.60;2.40;;;28.30;38.80;;;;;;4932684;28;20663;-66
2022/06/14 10:02:33;;;;;;;3.80;2.40;;;28.30;39.50;;;;;;4973591;28;20205;-67
2022/06/14 10:05:21;;;;;;;2.30;2.10;;;28.30;39.00;;;;;;4975017;28;20188;-67
2022/06/14 10:08:03;;;;;;;3.05;2.55;;;28.20;39.60;;;;;;4973257;28;20214;-67
2022/06/14 10:10:38;;;;;;;2.53;2.33;;;28.20;39.10;;;;;;4974828;28;20185;-67
2022/06/14 10:13:48;;;;;;;3.35;2.55;;;28.10;39.20;;;;;;4974450;28;20769;-66
2022/06/14 10:16:20;;;;;;;2.97;2.63;;;28.10;39.20;;;;;;4973271;28;20248;-67
2022/06/14 10:19:06;;;;;;;2.50;2.30;;;28.10;39.20;;;;;;4973284;28;20201;-67
2022/06/14 10:21:36;;;;;;;2.97;2.67;;;28.10;39.30;;;;;;4974444;28;20177;-67
2022/06/14 10:24:14;;;;;;;2.72;2.38;;;28.00;39.40;;;;;;4973938;28;20296;-68
2022/06/14 10:29:47;;;;;;;2.53;2.33;;;27.90;39.50;;;;;;4974702;28;20651;-67
2022/06/14 10:32:47;;;;;;;2.53;2.33;;;27.90;39.80;;;;;;4973172;28;20197;-69
2022/06/14 10:35:17;;;;;;;2.70;2.47;;;27.80;39.90;;;;;;4967942;28;20202;-68
2022/06/14 10:37:54;;;;;;;2.60;2.40;;;27.80;40.00;;;;;;4973239;28;20573;-67
2022/06/14 10:40:37;;;;;;;2.53;2.22;;;27.70;40.00;;;;;;4974602;28;20181;-67
2022/06/14 10:43:07;;;;;;;2.55;2.35;;;27.70;40.20;;;;;;4973002;28;20312;-67
2022/06/14 10:45:39;;;;;;;3.05;2.35;;;27.60;40.30;;;;;;4974359;28;20622;-67
2022/06/14 10:48:35;;;;;;;2.60;2.40;;;27.60;40.50;;;;;;4972979;28;20270;-67
2022/06/14 10:51:11;;;;;;;2.75;2.55;;;27.50;40.60;;;;;;4973056;28;20733;-67
2022/06/14 10:53:43;;;;;;;2.47;2.28;;;27.50;40.70;;;;;;4973973;28;20308;-67
2022/06/14 10:56:22;;;;;;;2.40;2.22;;;27.40;40.70;;;;;;4974581;28;20210;-67
2022/06/14 10:59:25;;;;;;;2.80;2.50;;;27.40;40.90;;;;;;4974489;28;20181;-67
2022/06/14 11:01:57;;;;;;;2.65;2.35;;;27.30;40.90;;;;;;4976072;28;20198;-67
2022/06/14 11:04:29;;;;;;;2.58;2.38;;;27.30;41.00;;;;;;4977125;28;20599;-67
2022/06/14 11:07:09;;;;;;;2.28;2.08;;;27.20;41.10;;;;;;4976907;28;20197;-68
2022/06/14 11:09:44;;;;;;;2.97;2.70;;;27.20;41.20;;;;;;4976390;28;20574;-67
2022/06/14 11:12:21;;;;;;;2.42;2.22;;;27.20;41.40;;;;;;4978246;28;20201;-67
2022/06/14 11:14:52;;;;;;;2.40;2.20;;;27.10;41.50;;;;;;4976305;28;20193;-67
2022/06/14 11:17:30;;;;;;;2.95;2.65;;;27.10;41.70;;;;;;4976214;28;20198;-66
2022/06/14 11:20:10;;;;;;;2.95;2.40;;;27.10;41.90;;;;;;4977565;28;20233;-66
2022/06/14 11:22:40;;;;;;;2.92;2.20;;;27.10;42.00;;;;;;4977711;28;20304;-67
2022/06/14 11:25:17;;;;;;;2.60;2.40;;;27.00;41.90;;;;;;4976243;28;20213;-66
2022/06/14 11:27:50;;;;;;;2.72;2.53;;;27.00;41.90;;;;;;4976157;28;20678;-67
2022/06/14 11:30:20;;;;;;;2.30;2.10;;;27.00;41.90;;;;;;4977355;28;20265;-67
2022/06/14 11:32:53;;;;;;;2.45;2.20;;;27.00;41.90;;;;;;4975844;28;20217;-67
2022/06/14 11:35:31;;;;;;;2.60;2.40;;;26.90;42.00;;;;;;4976348;28;20271;-67
2022/06/14 11:38:05;;;;;;;2.60;2.40;;;27.00;42.20;;;;;;4977285;28;20205;-68
2022/06/14 11:40:32;;;;;;;2.50;2.30;;;27.00;42.20;;;;;;4977037;28;20182;-66
2022/06/14 11:43:12;;;;;;;3.70;2.40;;;26.90;42.20;;;;;;4975857;28;20217;-67
2022/06/14 11:45:43;;;;;;;2.17;2.05;;;26.90;42.20;;;;;;4975836;28;20189;-67
2022/06/14 11:48:16;;;;;;;2.50;2.30;;;26.90;42.30;;;;;;4975591;28;20221;-66
2022/06/14 11:50:47;;;;;;;2.63;2.42;;;26.90;42.30;;;;;;4975672;28;20252;-67
2022/06/14 11:53:39;;;;;;;2.38;2.17;;;26.90;42.30;;;;;;4975471;28;20625;-67
2022/06/14 11:56:11;;;;;;;2.33;2.13;;;26.90;42.40;;;;;;4977198;28;20659;-67
2022/06/14 11:58:50;;;;;;;2.58;2.38;;;26.90;42.40;;;;;;4976759;28;20612;-67
2022/06/14 12:01:20;;;;;;;2.45;2.25;;;26.90;43.10;;;;;;5004744;23;20230;-69
2022/06/14 12:04:15;;;;;;;2.55;2.30;;;26.90;43.10;;;;;;5014908;28;20204;-69
2022/06/14 12:06:48;;;;;;;2.30;2.10;;;26.90;42.60;;;;;;5015862;28;20751;-69
2022/06/14 12:09:53;;;;;;;2.58;2.38;;;26.80;42.50;;;;;;5014571;28;20712;-69
2022/06/14 12:12:25;;;;;;;2.40;2.20;;;26.80;43.20;;;;;;4999431;28;20695;-69
2022/06/14 12:14:56;;;;;;;2.47;2.00;;;26.80;42.60;;;;;;5015902;28;20180;-69
2022/06/14 12:17:26;;;;;;;2.20;2.10;;;26.80;42.70;;;;;;5015721;28;20230;-69
2022/06/14 12:19:59;;;;;;;2.45;2.25;;;26.80;42.80;;;;;;5014318;28;20199;-69
2022/06/14 12:22:29;;;;;;;1.98;1.88;;;26.70;42.80;;;;;;5014502;28;20658;-69
2022/06/14 12:27:43;;;;;;;2.22;2.03;;;26.80;43.00;;;;;;5014168;28;20211;-69
2022/06/14 12:30:11;;;;;;;2.58;2.30;;;26.70;42.90;;;;;;5014029;28;20231;-70
2022/06/14 12:32:40;;;;;;;2.35;2.15;;;26.70;43.00;;;;;;5014281;28;20204;-69
2022/06/14 12:35:11;;;;;;;2.08;1.98;;;26.70;43.00;;;;;;5014012;28;20211;-69
2022/06/14 12:37:40;;;;;;;2.20;2.10;;;26.70;43.10;;;;;;5014354;28;20192;-69
2022/06/14 12:40:11;;;;;;;2.50;2.30;;;26.60;43.10;;;;;;5015294;28;20250;-70
2022/06/14 12:42:40;;;;;;;2.35;2.15;;;26.70;43.20;;;;;;5014291;28;20192;-69
2022/06/14 12:45:09;;;;;;;2.65;2.45;;;26.60;43.20;;;;;;5013786;28;20208;-69
2022/06/14 12:47:47;;;;;;;2.50;2.30;;;26.60;43.30;;;;;;5014935;28;20188;-69
2022/06/14 12:50:17;;;;;;;2.33;2.15;;;26.60;43.30;;;;;;5013797;28;20189;-69
2022/06/14 12:52:46;;;;;;;2.15;2.05;;;26.60;43.40;;;;;;5013948;28;20690;-69
2022/06/14 12:55:19;;;;;;;2.38;2.17;;;26.60;43.40;;;;;;5015062;28;20188;-70
2022/06/14 12:58:04;;;;;;;2.58;2.38;;;26.60;43.50;;;;;;5014577;28;20183;-69
2022/06/14 13:00:38;;;;;;;2.30;2.10;;;26.50;43.50;;;;;;5013437;28;20221;-69
2022/06/14 13:03:11;;;;;;;2.55;2.20;;;26.50;43.60;;;;;;5013351;28;20254;-69
2022/06/14 13:05:42;;;;;;;2.95;2.67;;;26.50;44.30;;;;;;5013460;28;20228;-69
2022/06/14 13:08:15;;;;;;;2.30;2.10;;;26.50;43.70;;;;;;5013362;28;20192;-69
2022/06/14 13:10:50;;;;;;;2.17;2.00;;;26.50;43.80;;;;;;5013376;28;20242;-69
2022/06/14 13:13:37;;;;;;;2.22;2.03;;;26.40;43.80;;;;;;5014822;28;20219;-69
2022/06/14 13:16:07;;;;;;;2.20;2.08;;;26.50;43.90;;;;;;5013345;28;20302;-70
2022/06/14 13:18:43;;;;;;;2.10;2.00;;;26.40;43.80;;;;;;5014338;28;20211;-69
2022/06/14 13:21:16;;;;;;;2.30;2.10;;;26.40;43.90;;;;;;5013021;28;20196;-69
2022/06/14 13:23:48;;;;;;;2.17;1.98;;;26.40;43.90;;;;;;5012984;28;20197;-69
2022/06/14 13:26:42;;;;;;;2.47;2.28;;;26.40;44.00;;;;;;5012924;28;20223;-69
2022/06/14 13:29:34;;;;;;;2.80;2.15;;;26.30;44.00;;;;;;5003687;28;20283;-69
2022/06/14 13:32:10;;;;;;;2.40;2.20;;;26.30;44.10;;;;;;5013071;28;20254;-69
2022/06/14 13:34:45;;;;;;;2.33;2.15;;;26.30;44.10;;;;;;5012902;28;20192;-69